Time;durP1;ratioP1;P1;durP2;ratioP2;P2;SDS_P1;SDS_P2;PMS_P1;PMS_P2;Temp;Humidity;BMP_temperature;BMP_pressure;BME280_temperature;BME280_humidity;BME280_pressure;Samples;Min_cycle;Max_cycle;Signal;HPM_P1;HPM_P2
2023/01/14 00:01:44;;;;;;;15.68;2.85;;;5.60;99.90;;;4.84;100.00;97853.16;5005384;28;20045;-74
2023/01/14 00:04:11;;;;;;;20.33;3.00;;;5.50;99.90;;;4.94;100.00;97846.13;5009348;28;20050;-73
2023/01/14 00:06:41;;;;;;;22.40;2.90;;;5.50;99.90;;;4.85;100.00;97841.97;5007654;28;20059;-73
2023/01/14 00:09:12;;;;;;;13.43;2.28;;;5.40;99.90;;;4.89;100.00;97843.63;5004345;28;20137;-73
2023/01/14 00:11:45;;;;;;;13.95;3.08;;;5.50;99.90;;;4.84;100.00;97858.28;4990573;28;20046;-73
2023/01/14 00:14:21;;;;;;;15.93;2.50;;;5.40;99.90;;;4.88;100.00;97829.06;5010756;28;20050;-73
2023/01/14 00:16:52;;;;;;;18.10;2.97;;;5.40;99.90;;;4.96;100.00;97832.34;5011732;28;20054;-73
2023/01/14 00:19:20;;;;;;;21.73;2.75;;;5.50;99.90;;;4.94;100.00;97839.25;5007702;28;20048;-73
2023/01/14 00:21:50;;;;;;;13.23;2.45;;;5.50;99.90;;;4.91;100.00;97867.59;5003081;28;20050;-73
2023/01/14 00:24:19;;;;;;;18.50;2.75;;;5.50;99.90;;;4.95;100.00;97843.53;5008997;28;20054;-73
2023/01/14 00:26:51;;;;;;;23.30;2.95;;;5.50;99.90;;;4.89;100.00;97869.34;4990460;28;20738;-73
2023/01/14 00:29:22;;;;;;;18.15;2.45;;;5.60;99.90;;;4.97;100.00;97846.06;5009417;28;20128;-73
2023/01/14 00:31:50;;;;;;;20.67;2.92;;;5.60;99.90;;;5.01;100.00;97843.41;5008524;28;20045;-73
2023/01/14 00:34:17;;;;;;;27.52;3.22;;;5.50;99.90;;;4.95;100.00;97864.13;5010654;28;20046;-73
2023/01/14 00:36:45;;;;;;;13.20;2.22;;;5.60;99.90;;;5.04;100.00;97850.25;5013613;28;20053;-73
2023/01/14 00:39:14;;;;;;;23.80;2.70;;;5.60;99.90;;;5.12;100.00;97858.69;5016256;28;20192;-73
2023/01/14 00:41:41;;;;;;;23.40;2.67;;;5.60;99.90;;;5.14;100.00;97854.38;5005858;28;20535;-73
2023/01/14 00:44:09;;;;;;;18.08;2.58;;;5.60;99.90;;;5.00;100.00;97861.47;5010719;28;20180;-73
2023/01/14 00:46:40;;;;;;;24.00;2.45;;;5.50;99.90;;;4.95;100.00;97863.25;5020463;28;20144;-73
2023/01/14 00:49:17;;;;;;;14.23;2.15;;;5.60;99.90;;;5.02;100.00;97858.00;5005308;28;20390;-73
2023/01/14 00:51:45;;;;;;;13.30;2.33;;;5.60;99.90;;;4.97;100.00;97874.38;5021754;28;20057;-73
2023/01/14 00:54:13;;;;;;;12.93;2.20;;;5.60;99.90;;;4.98;100.00;97866.63;5011973;28;20049;-73
2023/01/14 00:56:40;;;;;;;18.75;2.75;;;5.60;99.90;;;5.06;100.00;97845.06;4996708;28;20128;-73
2023/01/14 00:59:17;;;;;;;13.10;2.95;;;5.60;99.90;;;5.03;100.00;97849.38;5012756;28;20066;-73
2023/01/14 01:01:44;;;;;;;16.92;2.60;;;5.60;99.90;;;5.03;100.00;97864.81;5009976;28;20072;-73
2023/01/14 01:04:12;;;;;;;17.48;2.80;;;5.50;99.90;;;5.10;100.00;97846.72;5009636;28;20057;-73
2023/01/14 01:06:40;;;;;;;21.27;2.20;;;5.50;99.90;;;5.14;100.00;97843.25;5010777;28;20053;-73
2023/01/14 01:09:07;;;;;;;17.27;2.47;;;5.60;99.90;;;5.03;100.00;97848.53;5005724;28;20603;-73
2023/01/14 01:11:34;;;;;;;15.57;2.67;;;5.60;99.90;;;5.05;100.00;97853.69;5010702;28;20456;-73
2023/01/14 01:14:01;;;;;;;15.40;2.05;;;5.60;99.90;;;5.03;100.00;97838.25;5014870;28;20069;-73
2023/01/14 01:16:28;;;;;;;20.20;2.75;;;5.60;99.90;;;5.13;100.00;97837.25;5014449;28;20059;-73
2023/01/14 01:18:57;;;;;;;27.13;3.35;;;5.60;99.90;;;5.07;100.00;97839.91;5012839;28;20140;-73
2023/01/14 01:21:25;;;;;;;16.40;2.03;;;5.60;99.90;;;5.12;100.00;97824.41;5010892;28;20082;-73
2023/01/14 01:23:52;;;;;;;14.82;2.60;;;5.70;99.90;;;5.15;100.00;97830.31;5029702;28;20220;-73
2023/01/14 01:26:23;;;;;;;19.13;2.63;;;5.70;99.90;;;4.95;100.00;97825.53;5014179;28;20137;-73
2023/01/14 01:28:53;;;;;;;17.35;2.97;;;5.70;99.90;;;5.01;100.00;97832.28;5009061;28;20313;-73
2023/01/14 01:31:21;;;;;;;20.58;1.90;;;5.70;99.90;;;5.08;100.00;97833.03;5010574;28;20053;-73
2023/01/14 01:33:49;;;;;;;15.75;2.35;;;5.70;99.90;;;5.11;100.00;97830.41;5010255;28;20242;-73
2023/01/14 01:36:24;;;;;;;16.63;2.30;;;5.60;99.90;;;5.05;100.00;97854.53;5012063;28;20068;-73
2023/01/14 01:38:51;;;;;;;16.80;2.30;;;5.60;99.90;;;5.18;100.00;97839.75;5024287;28;20044;-73
2023/01/14 01:41:25;;;;;;;21.52;2.40;;;5.70;99.90;;;5.11;100.00;97843.25;5007569;28;20539;-73
2023/01/14 01:44:15;;;;;;;20.80;2.55;;;5.60;99.90;;;5.13;100.00;97844.97;5012302;28;20136;-73
2023/01/14 01:46:42;;;;;;;21.70;2.88;;;5.70;99.90;;;4.99;100.00;97863.16;4989102;28;20061;-73
2023/01/14 01:49:21;;;;;;;22.05;2.50;;;5.80;99.90;;;5.04;100.00;97863.13;5013270;28;20127;-73
2023/01/14 01:51:53;;;;;;;18.60;3.45;;;5.70;99.90;;;5.04;100.00;97857.97;4999483;28;20382;-73
2023/01/14 01:54:29;;;;;;;14.63;1.77;;;5.70;99.90;;;5.02;100.00;97847.69;5009356;28;20500;-73
2023/01/14 01:56:58;;;;;;;16.90;2.53;;;5.70;99.90;;;5.05;100.00;97841.66;5006752;28;20042;-73
2023/01/14 01:59:31;;;;;;;20.02;3.08;;;5.60;99.90;;;5.01;100.00;97850.28;5002496;28;20050;-73
2023/01/14 02:01:59;;;;;;;28.17;2.97;;;5.60;99.90;;;5.03;100.00;97840.84;5005293;28;20054;-73
2023/01/14 02:04:26;;;;;;;19.65;2.60;;;5.50;99.90;;;5.05;100.00;97846.81;5006506;28;20060;-73
2023/01/14 02:06:53;;;;;;;15.82;2.85;;;5.50;99.90;;;5.00;100.00;97838.31;5006236;28;20058;-73
2023/01/14 02:09:20;;;;;;;20.88;3.35;;;5.40;99.90;;;4.96;100.00;97844.38;5010498;28;20560;-73
2023/01/14 02:12:07;;;;;;;21.23;3.05;;;5.40;99.90;;;4.91;100.00;97862.47;5007492;28;20296;-73
2023/01/14 02:14:46;;;;;;;19.55;2.45;;;5.40;99.90;;;4.95;100.00;97845.22;5003252;28;20686;-73
2023/01/14 02:17:45;;;;;;;18.55;2.22;;;5.40;99.90;;;5.01;100.00;97850.28;5006850;28;20053;-73
2023/01/14 02:20:21;;;;;;;23.95;2.60;;;5.40;99.90;;;4.88;100.00;97857.38;5022254;28;20054;-73
2023/01/14 02:23:34;;;;;;;15.07;2.38;;;5.50;99.90;;;4.94;100.00;97862.41;5015019;28;20053;-73
2023/01/14 02:26:45;;;;;;;22.00;2.00;;;5.50;99.90;;;4.92;100.00;97850.44;5001300;28;20399;-73
2023/01/14 02:29:55;;;;;;;24.30;3.28;;;5.50;99.90;;;4.99;100.00;97857.19;5008234;28;20053;-73
2023/01/14 02:32:30;;;;;;;23.10;3.10;;;5.60;99.90;;;4.88;100.00;97857.38;5007730;28;20057;-73
2023/01/14 02:35:24;;;;;;;20.05;3.30;;;5.60;99.90;;;4.86;100.00;97835.97;5004462;28;20053;-73
2023/01/14 02:38:39;;;;;;;25.70;3.30;;;5.60;99.90;;;4.89;100.00;97838.47;5017000;28;20532;-73
2023/01/14 02:44:35;;;;;;;21.80;2.95;;;5.50;99.90;;;4.86;100.00;97817.09;5013417;28;20124;-73
2023/01/14 02:47:23;;;;;;;20.30;2.63;;;5.60;99.90;;;4.92;100.00;97812.69;4987026;28;20054;-73
2023/01/14 02:49:55;;;;;;;21.42;2.15;;;5.50;99.90;;;4.96;100.00;97816.09;5025041;28;20132;-73
2023/01/14 02:52:22;;;;;;;21.00;2.60;;;5.40;99.90;;;4.87;100.00;97811.94;4991987;28;20049;-73
2023/01/14 02:54:54;;;;;;;25.95;3.53;;;5.40;99.90;;;4.81;100.00;97807.75;5005018;28;20049;-73
2023/01/14 02:57:54;;;;;;;18.40;3.28;;;5.40;99.90;;;4.87;100.00;97808.50;5010419;28;20056;-73
2023/01/14 03:00:44;;;;;;;23.30;3.15;;;5.30;99.90;;;4.65;100.00;97819.13;5005496;28;20488;-73
2023/01/14 03:03:30;;;;;;;17.95;3.10;;;5.30;99.90;;;4.55;100.00;97823.56;5028025;28;20049;-73
2023/01/14 03:06:39;;;;;;;23.05;3.80;;;5.20;99.90;;;4.66;100.00;97805.41;5014811;28;20068;-73
2023/01/14 03:09:13;;;;;;;17.83;3.42;;;5.20;99.90;;;4.72;100.00;97802.75;5005629;28;20056;-73
2023/01/14 03:11:49;;;;;;;23.63;3.33;;;5.20;99.90;;;4.46;100.00;97805.69;5009769;28;20053;-73
2023/01/14 03:14:34;;;;;;;23.67;3.13;;;5.20;99.90;;;4.47;100.00;97798.81;5005111;28;20053;-73
2023/01/14 03:17:29;;;;;;;24.58;3.00;;;5.20;99.90;;;4.57;100.00;97797.84;5009907;28;20523;-73
2023/01/14 03:20:23;;;;;;;19.55;3.30;;;5.20;99.90;;;4.54;100.00;97793.59;5006962;28;20594;-73
2023/01/14 03:22:52;;;;;;;23.13;2.83;;;5.20;99.90;;;4.62;100.00;97788.31;5008423;28;20138;-73
2023/01/14 03:25:22;;;;;;;18.25;2.85;;;5.20;99.90;;;4.57;100.00;97788.41;4995577;28;20527;-73
2023/01/14 03:27:50;;;;;;;12.68;2.67;;;5.20;99.90;;;4.53;100.00;97785.91;4996639;28;20071;-73
2023/01/14 03:30:24;;;;;;;21.52;3.10;;;5.10;99.90;;;4.65;100.00;97772.00;5007725;28;20053;-72
2023/01/14 03:32:58;;;;;;;19.85;3.42;;;5.20;99.90;;;4.61;100.00;97763.50;5017653;28;20054;-73
2023/01/14 03:35:31;;;;;;;19.55;2.75;;;5.10;99.90;;;4.48;100.00;97769.69;4999687;28;20109;-72
2023/01/14 03:38:25;;;;;;;20.95;2.88;;;5.10;99.90;;;4.61;100.00;97763.50;5004779;28;20536;-73
2023/01/14 03:40:54;;;;;;;14.88;2.92;;;5.10;99.90;;;4.61;100.00;97766.91;5009673;28;20061;-73
2023/01/14 03:43:55;;;;;;;21.55;3.17;;;5.10;99.90;;;4.60;100.00;97759.22;5011393;28;20046;-73
2023/01/14 03:46:22;;;;;;;19.33;3.17;;;5.10;99.90;;;4.54;100.00;97767.88;4998651;28;20567;-73
2023/01/14 03:48:49;;;;;;;20.85;3.33;;;5.10;99.90;;;4.44;100.00;97773.19;5007641;28;20053;-73
2023/01/14 03:51:31;;;;;;;16.50;3.53;;;5.10;99.90;;;4.51;100.00;97754.22;4992083;28;20088;-72
2023/01/14 03:54:22;;;;;;;19.38;2.70;;;5.20;99.90;;;4.52;100.00;97759.34;5003627;28;20504;-72
2023/01/14 03:57:06;;;;;;;24.13;4.20;;;5.10;99.90;;;4.38;100.00;97749.28;5006294;28;20049;-72
2023/01/14 04:00:10;;;;;;;18.77;2.60;;;5.10;99.90;;;4.55;100.00;97743.03;5006873;28;20050;-72
2023/01/14 04:02:38;;;;;;;29.50;3.60;;;5.10;99.90;;;4.33;100.00;97745.06;4992951;28;20053;-72
2023/01/14 04:05:07;;;;;;;25.75;3.40;;;5.10;99.90;;;4.50;100.00;97747.41;5011394;28;20512;-72
2023/01/14 04:07:35;;;;;;;23.80;3.83;;;5.10;99.90;;;4.52;100.00;97741.34;5006519;28;20077;-72
2023/01/14 04:10:03;;;;;;;16.92;3.10;;;5.10;99.90;;;4.57;100.00;97736.13;5023973;28;20054;-72
2023/01/14 04:12:30;;;;;;;22.75;2.97;;;5.10;99.90;;;4.57;100.00;97734.41;5003649;28;20046;-72
2023/01/14 04:17:42;;;;;;;23.52;3.60;;;5.00;99.90;;;4.49;100.00;97736.25;5011696;28;20420;-72
2023/01/14 04:20:10;;;;;;;18.13;2.70;;;5.00;99.90;;;4.54;100.00;97720.78;5008872;28;20053;-72
2023/01/14 04:22:37;;;;;;;17.80;3.03;;;5.00;99.90;;;4.57;100.00;97716.41;4992959;28;20145;-72
2023/01/14 04:25:04;;;;;;;24.75;2.83;;;5.00;99.90;;;4.30;100.00;97720.25;5008021;28;20451;-73
2023/01/14 04:27:31;;;;;;;15.80;2.28;;;5.00;99.90;;;4.24;100.00;97716.94;5014637;28;20068;-72
2023/01/14 04:29:58;;;;;;;23.10;3.53;;;5.00;99.90;;;4.27;100.00;97727.19;5007673;28;20057;-72
2023/01/14 04:32:26;;;;;;;26.85;3.63;;;5.00;99.90;;;4.30;100.00;97722.84;5006453;28;20049;-73
2023/01/14 04:34:53;;;;;;;21.25;2.92;;;5.00;99.90;;;4.36;100.00;97716.78;5009521;28;20428;-73
2023/01/14 04:37:20;;;;;;;22.00;3.08;;;5.00;99.90;;;4.39;100.00;97714.13;5003591;28;20065;-71
2023/01/14 04:39:48;;;;;;;16.33;2.72;;;5.00;99.90;;;4.32;100.00;97715.94;5009751;28;20160;-71
2023/01/14 04:42:26;;;;;;;20.48;2.75;;;5.00;99.90;;;4.26;100.00;97715.19;5006177;28;20056;-71
2023/01/14 04:44:56;;;;;;;23.38;2.72;;;5.00;99.90;;;4.45;100.00;97701.19;5009146;28;20042;-71
2023/01/14 04:47:24;;;;;;;19.27;3.83;;;5.00;99.90;;;4.35;100.00;97708.19;5005976;28;20081;-71
2023/01/14 04:49:51;;;;;;;17.83;2.28;;;5.00;99.90;;;4.43;100.00;97696.97;5027223;28;20104;-71
2023/01/14 04:52:19;;;;;;;24.45;3.10;;;5.00;99.90;;;4.43;100.00;97691.81;5009143;28;20546;-71
2023/01/14 04:54:46;;;;;;;21.80;2.30;;;4.90;99.90;;;4.33;100.00;97704.81;5012063;28;20065;-71
2023/01/14 04:57:13;;;;;;;27.30;3.72;;;5.00;99.90;;;4.51;100.00;97679.69;5026412;28;20141;-71
2023/01/14 04:59:40;;;;;;;21.15;2.92;;;4.90;99.90;;;4.31;100.00;97680.88;5014492;28;20034;-71
2023/01/14 05:02:07;;;;;;;19.55;2.92;;;4.90;99.90;;;4.35;100.00;97687.63;5008157;28;20497;-71
2023/01/14 05:04:35;;;;;;;18.80;3.53;;;4.90;99.90;;;4.28;100.00;97680.06;5008192;28;20116;-71
2023/01/14 05:07:02;;;;;;;19.70;3.85;;;4.90;99.90;;;4.40;100.00;97675.56;5028363;28;20065;-71
2023/01/14 05:09:30;;;;;;;23.60;2.38;;;4.90;99.90;;;4.21;100.00;97675.88;5009384;28;20050;-71
2023/01/14 05:11:57;;;;;;;19.77;2.83;;;4.90;99.90;;;4.33;100.00;97662.84;5005639;28;20068;-71
2023/01/14 05:14:24;;;;;;;26.10;3.67;;;4.90;99.90;;;4.12;100.00;97680.28;5010447;28;20073;-72
2023/01/14 05:16:51;;;;;;;23.17;3.17;;;4.90;99.90;;;4.28;100.00;97672.34;5007748;28;20060;-71
2023/01/14 05:19:22;;;;;;;20.45;2.50;;;4.90;99.90;;;4.24;100.00;97674.09;5011521;28;20073;-71
2023/01/14 05:21:48;;;;;;;19.55;2.83;;;4.80;99.90;;;4.31;100.00;97660.31;5006055;28;20049;-71
2023/01/14 05:24:16;;;;;;;19.92;2.58;;;4.80;99.90;;;4.25;100.00;97655.25;5008199;28;20045;-71
2023/01/14 05:26:43;;;;;;;19.23;2.55;;;4.80;99.90;;;4.13;100.00;97653.75;5009915;28;20053;-71
2023/01/14 05:29:10;;;;;;;20.40;2.95;;;4.80;99.90;;;4.17;100.00;97657.97;5009758;28;20060;-71
2023/01/14 05:31:37;;;;;;;20.85;3.55;;;4.70;99.90;;;4.15;100.00;97656.25;5009426;28;20128;-71
2023/01/14 05:34:04;;;;;;;23.17;2.40;;;4.70;99.90;;;4.15;100.00;97639.16;5011997;28;20128;-71
2023/01/14 05:36:31;;;;;;;24.35;3.30;;;4.80;99.90;;;4.19;100.00;97648.47;5010476;28;20391;-71
2023/01/14 05:38:58;;;;;;;32.25;3.67;;;4.70;99.90;;;4.15;100.00;97646.00;5012418;28;20046;-71
2023/01/14 05:41:25;;;;;;;23.38;3.03;;;4.70;99.90;;;4.15;100.00;97634.00;5011936;28;20050;-71
2023/01/14 05:46:52;;;;;;;17.60;2.28;;;4.60;99.90;;;4.16;100.00;97628.00;5006097;28;20062;-71
2023/01/14 05:49:19;;;;;;;23.42;3.15;;;4.60;99.90;;;4.09;100.00;97617.84;5010697;28;20057;-71
2023/01/14 05:51:46;;;;;;;22.25;2.45;;;4.60;99.90;;;4.08;100.00;97617.00;5006574;28;20540;-72
2023/01/14 05:54:13;;;;;;;24.50;2.88;;;4.60;99.90;;;4.04;100.00;97607.66;5008452;28;20061;-71
2023/01/14 05:56:40;;;;;;;20.52;2.88;;;4.60;99.90;;;4.08;100.00;97596.47;5008388;28;20057;-71
2023/01/14 05:59:08;;;;;;;27.00;3.08;;;4.50;99.90;;;4.06;100.00;97605.91;5007586;28;20045;-72
2023/01/14 06:07:06;;;;;;;18.98;3.00;;;4.60;99.90;;;4.17;100.00;97593.75;5007136;28;20065;-71
2023/01/14 06:09:33;;;;;;;15.32;3.20;;;4.60;99.90;;;4.11;100.00;97588.69;5009983;28;20573;-71
2023/01/14 06:12:03;;;;;;;24.10;4.20;;;4.60;99.90;;;4.16;100.00;97588.63;5008282;28;20156;-72
2023/01/14 06:14:31;;;;;;;21.40;3.40;;;4.70;99.90;;;4.18;100.00;97580.00;5023030;28;20058;-72
2023/01/14 06:17:04;;;;;;;24.33;3.72;;;4.70;99.90;;;4.26;100.00;97582.44;5009496;28;20044;-71
2023/01/14 06:19:32;;;;;;;27.83;3.05;;;4.80;99.90;;;4.35;100.00;97571.16;5012106;28;20057;-72
2023/01/14 06:21:59;;;;;;;17.88;2.45;;;4.80;99.90;;;4.28;100.00;97587.56;5005138;28;20218;-71
2023/01/14 06:24:26;;;;;;;23.20;2.45;;;4.80;99.90;;;4.32;100.00;97574.63;5006154;28;20425;-72
2023/01/14 06:26:53;;;;;;;23.83;2.92;;;4.90;99.90;;;4.37;100.00;97553.97;5002363;28;20144;-72
2023/01/14 06:29:20;;;;;;;15.70;2.78;;;4.90;99.90;;;4.48;100.00;97559.78;5010531;28;20064;-71
2023/01/14 06:31:47;;;;;;;32.75;3.53;;;5.00;99.90;;;4.47;100.00;97557.22;5006305;28;20366;-71
2023/01/14 06:34:14;;;;;;;23.83;3.40;;;5.00;99.90;;;4.35;100.00;97553.16;5002064;28;20128;-71
2023/01/14 06:36:41;;;;;;;29.02;4.05;;;5.00;99.90;;;4.39;100.00;97552.22;5009808;28;20042;-71
2023/01/14 06:39:08;;;;;;;25.02;3.10;;;5.10;99.90;;;4.45;100.00;97552.13;5006403;28;20050;-71
2023/01/14 06:41:36;;;;;;;20.98;3.10;;;5.00;99.90;;;4.47;100.00;97541.81;5011717;28;20054;-71
2023/01/14 06:44:03;;;;;;;20.80;2.90;;;5.00;99.90;;;4.48;100.00;97543.50;5004237;28;20127;-71
2023/01/14 06:46:30;;;;;;;24.00;2.88;;;5.00;99.90;;;4.45;100.00;97536.72;5011694;28;20160;-71
2023/01/14 06:48:57;;;;;;;22.85;3.28;;;5.00;99.90;;;4.35;100.00;97532.59;5013345;28;20053;-71
2023/01/14 06:51:25;;;;;;;18.77;2.90;;;5.00;99.90;;;4.39;100.00;97535.09;5010199;28;20054;-71
2023/01/14 06:53:53;;;;;;;24.67;3.30;;;5.00;99.90;;;4.37;100.00;97528.28;5008884;28;20057;-72
2023/01/14 06:56:20;;;;;;;28.25;3.17;;;5.00;99.90;;;4.33;100.00;97531.78;5008084;28;20065;-71
2023/01/14 06:58:49;;;;;;;25.02;3.58;;;4.90;99.90;;;4.44;100.00;97509.31;5014132;28;20133;-71
2023/01/14 07:01:17;;;;;;;19.52;3.08;;;4.90;99.90;;;4.46;100.00;97509.28;5016333;28;20046;-71
2023/01/14 07:03:44;;;;;;;20.55;2.67;;;4.90;99.90;;;4.32;100.00;97509.53;5007806;28;20087;-71
2023/01/14 07:06:12;;;;;;;17.35;2.60;;;4.90;99.90;;;4.39;100.00;97495.69;5003537;28;20057;-71
2023/01/14 07:08:39;;;;;;;21.60;3.33;;;4.90;99.90;;;4.52;100.00;97507.44;5008761;28;20057;-71
2023/01/14 07:11:06;;;;;;;16.85;2.30;;;4.90;99.90;;;4.48;100.00;97510.09;5008597;28;20049;-71
2023/01/14 07:13:33;;;;;;;22.98;3.15;;;5.00;99.90;;;4.57;100.00;97503.03;5005424;28;20050;-71
2023/01/14 07:16:00;;;;;;;16.70;2.80;;;5.00;99.90;;;4.44;100.00;97519.56;5020394;28;20078;-72
2023/01/14 07:18:28;;;;;;;21.20;3.22;;;5.00;99.90;;;4.54;100.00;97500.56;5008860;28;20046;-72
2023/01/14 07:20:58;;;;;;;17.88;2.80;;;5.10;99.90;;;4.56;100.00;97511.66;5021619;28;20137;-72
2023/01/14 07:23:26;;;;;;;26.58;3.15;;;5.10;99.90;;;4.62;100.00;97502.97;5011548;28;20050;-72
2023/01/14 07:25:55;;;;;;;22.80;3.35;;;5.10;99.90;;;4.50;100.00;97513.50;5012717;28;20066;-72
2023/01/14 07:28:27;;;;;;;17.83;2.15;;;5.10;99.90;;;4.64;100.00;97513.22;5010231;28;20054;-72
2023/01/14 07:30:55;;;;;;;20.98;2.13;;;5.10;99.90;;;4.64;100.00;97518.34;5008958;28;20053;-72
2023/01/14 07:33:22;;;;;;;20.40;3.15;;;5.10;99.90;;;4.66;100.00;97503.75;5011562;28;20046;-72
2023/01/14 07:35:51;;;;;;;31.45;3.65;;;5.20;99.90;;;4.75;100.00;97508.72;5007410;28;20536;-72
2023/01/14 07:38:20;;;;;;;16.95;2.42;;;5.30;99.90;;;4.84;100.00;97498.22;5011204;28;20144;-72
2023/01/14 07:40:47;;;;;;;12.45;2.80;;;5.20;99.90;;;4.86;100.00;97498.19;4999595;28;20042;-72
2023/01/14 07:43:14;;;;;;;13.13;2.35;;;5.30;99.90;;;4.83;100.00;97504.22;5005778;28;20488;-72
2023/01/14 07:45:42;;;;;;;15.25;3.15;;;5.40;99.90;;;4.85;100.00;97481.91;4992333;28;20056;-72
2023/01/14 07:48:09;;;;;;;14.45;2.67;;;5.50;99.90;;;4.98;100.00;97485.06;5007375;28;20112;-72
2023/01/14 07:50:37;;;;;;;18.48;3.00;;;5.50;99.90;;;4.99;100.00;97485.03;5008432;28;20062;-72
2023/01/14 07:53:04;;;;;;;11.93;2.63;;;5.50;99.90;;;4.99;100.00;97492.72;5007569;28;20069;-73
2023/01/14 07:55:33;;;;;;;16.35;4.20;;;5.60;99.90;;;4.98;100.00;97474.78;5011772;28;20049;-72
2023/01/14 07:58:00;;;;;;;19.08;4.57;;;5.70;99.90;;;5.07;100.00;97481.47;5006097;28;20054;-72
2023/01/14 08:00:27;;;;;;;10.85;2.55;;;5.80;99.90;;;5.14;100.00;97472.72;5007284;28;20045;-73
2023/01/14 08:02:54;;;;;;;12.82;3.92;;;5.80;99.90;;;5.18;100.00;97458.91;5006440;28;20054;-72
2023/01/14 08:05:21;;;;;;;12.85;2.55;;;5.90;99.90;;;5.35;100.00;97461.91;5013458;28;20062;-72
2023/01/14 08:07:48;;;;;;;16.98;2.65;;;5.90;99.90;;;5.47;100.00;97455.63;5008202;28;20042;-72
2023/01/14 08:10:16;;;;;;;7.72;2.63;;;5.90;99.90;;;5.43;100.00;97452.28;4995323;28;20054;-72
2023/01/14 08:12:43;;;;;;;14.23;4.53;;;5.90;99.90;;;5.41;100.00;97463.50;5005597;28;20060;-73
2023/01/14 08:15:12;;;;;;;18.30;3.58;;;6.10;99.90;;;5.50;100.00;97436.72;5002736;28;20484;-72
2023/01/14 08:17:40;;;;;;;13.85;2.78;;;6.10;99.90;;;5.53;100.00;97442.63;5012739;28;20054;-72
2023/01/14 08:20:09;;;;;;;14.80;3.30;;;6.20;99.90;;;5.54;100.00;97439.16;4993614;28;20049;-72
2023/01/14 08:22:37;;;;;;;11.90;2.90;;;6.20;99.90;;;5.63;100.00;97426.06;4995153;28;20478;-72
2023/01/14 08:25:05;;;;;;;12.85;2.70;;;6.20;99.90;;;5.70;100.00;97410.44;5004931;28;20074;-72
2023/01/14 08:27:33;;;;;;;9.35;2.47;;;6.20;99.90;;;5.79;100.00;97420.50;5014146;28;20473;-72
2023/01/14 08:30:00;;;;;;;10.25;2.25;;;6.30;99.90;;;5.76;100.00;97431.72;5015759;28;20062;-72
2023/01/14 08:32:28;;;;;;;9.70;2.65;;;6.30;99.90;;;5.85;100.00;97408.31;5009610;28;20080;-72
2023/01/14 08:34:54;;;;;;;12.32;2.75;;;6.40;99.90;;;5.89;100.00;97403.94;5011001;28;20133;-72
2023/01/14 08:37:22;;;;;;;12.77;2.80;;;6.40;99.90;;;5.96;100.00;97409.81;5016340;28;20050;-72
2023/01/14 08:39:49;;;;;;;6.70;2.15;;;6.40;99.90;;;6.01;100.00;97393.31;5013303;28;20038;-72
2023/01/14 08:42:17;;;;;;;7.90;2.40;;;6.40;99.90;;;6.06;100.00;97396.59;5015255;28;20053;-72
2023/01/14 08:44:43;;;;;;;10.77;4.22;;;6.50;99.90;;;6.08;100.00;97394.84;4997128;28;20102;-72
2023/01/14 08:47:11;;;;;;;16.17;7.45;;;6.50;99.90;;;6.11;100.00;97383.59;5013302;28;20157;-72
2023/01/14 08:49:38;;;;;;;12.57;3.20;;;6.70;99.90;;;6.14;100.00;97395.56;5015456;28;20059;-72
2023/01/14 08:52:05;;;;;;;6.85;1.90;;;6.70;99.90;;;6.16;100.00;97384.34;5015190;28;20062;-72
2023/01/14 08:54:32;;;;;;;12.70;3.65;;;6.80;99.90;;;6.24;100.00;97368.63;5015031;28;20056;-72
2023/01/14 08:56:59;;;;;;;10.23;1.80;;;6.70;99.90;;;6.30;100.00;97345.28;5013651;28;20065;-72
2023/01/14 08:59:26;;;;;;;10.70;2.60;;;6.80;99.90;;;6.38;100.00;97357.94;5015775;28;20204;-72
2023/01/14 09:01:53;;;;;;;7.93;1.58;;;6.80;99.90;;;6.33;100.00;97355.50;5015610;28;20391;-72
2023/01/14 09:04:24;;;;;;;9.75;1.92;;;6.90;99.90;;;6.41;100.00;97308.84;5011814;28;20073;-72
2023/01/14 09:18:03;;;;;;;14.15;2.70;;;7.00;99.90;;;6.43;100.00;97283.88;5011354;28;20105;-71
2023/01/14 09:20:35;;;;;;;8.95;2.92;;;7.00;99.90;;;6.61;100.00;97290.19;5006299;28;20063;-71
2023/01/14 09:23:05;;;;;;;8.15;1.77;;;7.10;99.90;;;6.53;100.00;97310.22;5014994;28;20129;-71
2023/01/14 09:25:36;;;;;;;12.13;2.88;;;7.10;99.90;;;6.53;100.00;97302.50;4993784;28;20042;-72
2023/01/14 09:28:03;;;;;;;13.45;4.22;;;7.20;99.90;;;6.60;100.00;97293.69;5018355;28;20516;-72
2023/01/14 09:30:30;;;;;;;7.90;1.77;;;7.20;99.90;;;6.58;100.00;97290.31;5014055;28;20049;-72
2023/01/14 09:32:59;;;;;;;10.68;1.40;;;7.20;99.90;;;6.67;100.00;97279.69;5011161;28;20049;-72
2023/01/14 09:35:26;;;;;;;10.55;4.32;;;7.20;99.90;;;6.61;100.00;97298.75;5025420;28;20494;-71
2023/01/14 09:37:54;;;;;;;10.63;2.17;;;7.20;99.90;;;6.68;100.00;97277.06;4995196;28;20160;-71
2023/01/14 09:40:21;;;;;;;9.98;3.25;;;7.20;99.90;;;6.75;100.00;97267.41;5014352;28;20058;-71
2023/01/14 09:42:50;;;;;;;15.05;5.18;;;7.30;99.90;;;6.82;100.00;97257.69;4998802;28;20037;-71
2023/01/14 09:45:27;;;;;;;11.60;3.95;;;7.30;99.90;;;6.74;100.00;97242.50;4999435;28;20128;-71
2023/01/14 09:48:00;;;;;;;12.88;4.32;;;7.30;99.90;;;6.87;100.00;97222.31;4998218;28;20139;-72
2023/01/14 09:51:04;;;;;;;7.15;1.55;;;7.40;99.90;;;6.92;100.00;97215.25;5004021;28;20045;-72
2023/01/14 09:53:56;;;;;;;5.97;1.35;;;7.60;99.90;;;7.03;100.00;97200.25;4992315;28;20141;-72
2023/01/14 09:56:34;;;;;;;4.82;1.23;;;7.50;99.90;;;6.97;100.00;97215.09;5007030;28;20057;-71
2023/01/14 09:59:37;;;;;;;2.78;0.98;;;7.60;99.90;;;6.99;100.00;97215.88;5000740;28;20065;-72
2023/01/14 10:02:23;;;;;;;7.63;1.27;;;7.60;99.90;;;7.09;100.00;97207.78;4990793;28;20701;-71
2023/01/14 10:05:29;;;;;;;4.03;1.25;;;7.60;99.90;;;7.08;100.00;97162.19;4997705;28;20050;-71
2023/01/14 10:07:59;;;;;;;3.75;1.00;;;7.60;99.90;;;7.13;100.00;97168.03;4992996;28;20528;-72
2023/01/14 10:10:33;;;;;;;4.50;0.90;;;7.70;99.90;;;7.25;100.00;97178.81;4995859;28;20137;-71
2023/01/14 10:13:10;;;;;;;3.45;0.70;;;7.70;99.90;;;7.37;100.00;97138.81;4993678;28;20113;-72
2023/01/14 10:15:55;;;;;;;3.20;0.88;;;7.80;99.90;;;7.39;100.00;97137.88;4979913;28;20516;-71
2023/01/14 10:18:38;;;;;;;6.70;1.00;;;7.90;99.90;;;7.33;100.00;97127.78;5012352;28;20062;-72
2023/01/14 10:21:18;;;;;;;4.57;0.85;;;8.00;99.90;;;7.28;100.00;97135.69;5006072;28;20145;-72
2023/01/14 10:23:45;;;;;;;6.82;0.73;;;8.00;99.90;;;7.49;100.00;97102.22;5006497;28;20042;-72
2023/01/14 10:26:19;;;;;;;3.85;0.88;;;8.00;99.90;;;7.52;100.00;97090.00;5009680;28;20050;-71
2023/01/14 10:28:50;;;;;;;3.58;0.90;;;8.00;99.90;;;7.44;100.00;97114.47;5010311;28;20056;-72
2023/01/14 10:31:27;;;;;;;5.15;1.00;;;8.10;99.90;;;7.39;100.00;97111.19;5002362;28;20513;-72
2023/01/14 10:33:55;;;;;;;6.05;0.98;;;8.10;99.90;;;7.42;100.00;97093.88;5005299;28;20414;-72
2023/01/14 10:36:24;;;;;;;4.43;0.93;;;8.10;99.90;;;7.50;100.00;97112.50;4993344;28;20049;-72
2023/01/14 10:38:51;;;;;;;6.18;1.02;;;8.10;99.90;;;7.56;100.00;97075.25;5000370;28;20156;-71
2023/01/14 10:41:48;;;;;;;5.18;1.05;;;8.30;99.90;;;7.59;100.00;97103.53;5000768;28;20046;-71
2023/01/14 10:44:27;;;;;;;6.03;1.35;;;8.30;99.90;;;7.63;100.00;97091.34;5009981;28;20053;-71
2023/01/14 10:46:59;;;;;;;6.25;0.95;;;8.30;99.90;;;7.66;100.00;97071.44;5005782;28;20066;-70
2023/01/14 10:49:57;;;;;;;4.07;0.88;;;8.30;99.90;;;7.76;100.00;97071.91;5007671;28;20598;-71
2023/01/14 10:52:30;;;;;;;2.85;0.93;;;8.40;99.90;;;7.71;100.00;97086.75;5014826;28;20799;-71
2023/01/14 10:55:01;;;;;;;5.07;0.95;;;8.30;99.90;;;7.72;100.00;97066.00;5021146;28;20144;-71
2023/01/14 10:57:33;;;;;;;3.60;0.88;;;8.30;99.90;;;7.70;100.00;97048.88;5008992;28;20129;-71
2023/01/14 11:00:03;;;;;;;4.60;0.73;;;8.40;99.90;;;7.65;100.00;97076.66;5008347;28;20052;-71
2023/01/14 11:02:38;;;;;;;4.75;0.70;;;8.60;99.90;;;7.65;100.00;97063.72;5024522;28;20041;-71
2023/01/14 11:05:24;;;;;;;9.88;1.15;;;8.60;99.90;;;7.77;100.00;97065.81;5004658;28;20053;-71
2023/01/14 11:07:53;;;;;;;5.82;1.10;;;8.50;99.90;;;7.87;100.00;97017.22;5002468;28;20064;-72